AirNav   Everest Fuels
 
 962 users online  

CN13 Borges - Clarksburg Airport
Clarksburg, California, USA

GOING TO CLARKSBURG?


FAA INFORMATION EFFECTIVE 01 DECEMBER 2022

Location

FAA Identifier: CN13
Lat/Long: 38-26-35.7000N 121-30-31.9000W
38-26.595000N 121-30.531667W
38.4432500,-121.5088611
(estimated)
Elevation: 12 ft. / 4 m (estimated)
Variation: 16E (1985)
From city: 2 miles NE of CLARKSBURG, CA
Time zone: UTC -8 (UTC -7 during Daylight Saving Time)
Zip code: 95612

Airport Operations

Airport use: Private use. Permission required prior to landing
Activation date: 07/1989
Control tower: no
ARTCC: OAKLAND CENTER
FSS: RANCHO MURIETA FLIGHT SERVICE STATION
Attendance: MON-FRI 0800-1700
Wind indicator: yes
Segmented circle: no

Airport Communications

WX ASOS at SAC (4 nm N): PHONE 916-421-0923
WX AWOS-3PT at MHR (12 nm NE): 118.325 (916-366-3371)
WX AWOS-3 at EDU (14 nm W): 119.025 (530-754-6839)
WX AWOS-3 at MCC (14 nm N): 125.975 (916-641-1272)
WX ASOS at SMF (16 nm N): PHONE 916-649-3996
WX AWOS-AV at O88 (18 nm SW): 127.075 (707-374-5396)
WX AWOS-3P at DWA (18 nm NW): 125.775 (530-750-2759)

Nearby radio navigation aids

VOR radial/distance  VOR name  Freq  Var
SACr074/2.0SACRAMENTO VORTAC115.2017E
MCCr183/14.3MC CLELLAN VOR/DME109.2017E
LINr296/32.5LINDEN VOR/DME114.8017E
CCRr030/34.8CONCORD VOR/DME117.0017E
HNWr228/39.4HANGTOWN VOR/DME115.5017E
MYVr160/39.4MARYSVILLE VOR/DME110.8016E

Airport Services

Parking: tiedowns
Airframe service: MAJOR
Powerplant service: MAJOR

Runway Information

Runway 9/27

Dimensions: 2260 x 90 ft. / 689 x 27 m
Surface: turf, in good condition
RUNWAY 9  RUNWAY 27
Latitude: 38-26.647330N38-26.543915N
Longitude: 121-30.759598W121-30.304808W
Elevation: 6.5 ft.14.4 ft.
Traffic pattern: leftleft
Obstructions: none75 ft. tree, 15 ft. right of centerline

Airport Ownership and Management from official FAA records

Ownership: Privately-owned
Owner: MARC ANDERSON
1200 MT DIABLO BLVD STE 400
WALNUT CREEK, CA 94596
Phone (510) 409-2230
Manager: MARC ANDERSON
1200 MT DIABLO BLVD, STE 400
WALNUT CREEK, CA 94596-4549
Phone (510) 409-2230
CELL: 916-715-6027

Airport Operational Statistics

Aircraft based on the field: 19
Single engine airplanes: 18
Ultralights: 1
    
Aircraft operations: avg 57/week *
67% local general aviation
33% transient general aviation
* for 12-month period ending 31 December 2001

Additional Remarks

RY MAY BE SOFT
FOR BRIEFING BEFORE USE CTC FBO (916) 665-0006.
SEASONAL CROPS ALONG BOTH SIDES OF RY.
+75 FT TREES AT APCH END OF RY 27.
TAKE-OFFS ONLY ON RY 27.
LANDINGS ONLY ON RY 09.
FOR CD CTC NORCAL APCH AT 916-361-6874.

Instrument Procedures

There are no published instrument procedures at CN13.

Some nearby airports with instrument procedures:

KSAC - Sacramento Executive Airport (4 nm N)
KMHR - Sacramento Mather Airport (12 nm NE)
KEDU - University Airport (14 nm W)
KMCC - Mc Clellan Airfield (14 nm N)
KSMF - Sacramento International Airport (16 nm N)
O88 - Rio Vista Municipal Airport (18 nm SW)
KDWA - Yolo County Airport (18 nm NW)
1O3 - Lodi Airport (18 nm SE)
 
Loc | Ops | Rwys | IFR | FBO | Links
Com | Nav | Svcs | Stats | Notes
Area around CN13 (Borges - Clarksburg Airport)
 
Road maps at: MapQuest Bing Google
 
Aerial photo
WARNING: Photo may not be current or correct
Aerial photo of CN13 (Borges - Clarksburg Airport)
Do you have a better or more recent aerial photo of Borges - Clarksburg Airport that you would like to share? If so, please send us your photo.

 
Sectional chart

 
Airport distance calculator
Flying to Borges - Clarksburg Airport? Find the distance to fly.

From to CN13

Sunrise and sunset
Times for 06-Dec-2022
 Local
(UTC-8)
 Zulu
(UTC)
Morning civil twilight06:4114:41
Sunrise07:1015:10
Sunset16:4400:44
Evening civil twilight17:1401:14

Current date and time
Zulu (UTC)  07-Dec-2022 04:48:54
Local (UTC-8)  06-Dec-2022 20:48:54
 
METAR
KSAC 
3nm N 
070353Z 00000KT CLR 08/06 A3009 RMK AO2 SLP190 T00830061 $
KMHR 
12nm NE 
070430Z AUTO 00000KT 7SM CLR 06/05 A3008 RMK A01
KEDU 
14nm W 
070435Z AUTO 00000KT 10SM CLR 08/04 A3011 RMK AO1
KMCC 
14nm N 
070435Z AUTO 00000KT 10SM CLR 06/05 A3010 RMK AO2
KSMF 
16nm N 
070353Z 29004KT 10SM CLR 08/05 A3009 RMK AO2 SLP188 T00830050
KDWA 
18nm NW 
070435Z AUTO 33004KT 10SM SCT032 BKN039 BKN047 08/05 A3012 RMK AO2
TAF
KSAC 
3nm N 
061734Z 0618/0718 VRB05KT P6SM BKN050 BKN150 FM062000 VRB05KT P6SM SCT250 FM070900 VRB02KT 4SM BR SCT250 FM071500 00000KT 1 1/2SM BR FEW250 FM071700 19002KT P6SM FEW250
KMHR 
12nm NE 
062255Z 0623/0718 VRB05KT P6SM VCTS FEW050CB SCT250 TEMPO 0623/0624 3SM TSRA BKN040CB FM071100 VRB05KT 6SM BR SKC FM071700 00000KT P6SM SCT250
KMCC 
14nm N 
061734Z 0618/0718 31005KT P6SM SCT040 BKN050 BKN150 FM062000 VRB05KT P6SM SCT250 FM071100 VRB03KT 6SM BR SKC FM071500 VRB03KT 4SM BR SKC
KSMF 
16nm N 
061734Z 0618/0718 33007KT P6SM SCT020 BKN050 BKN100 FM062300 VRB05KT P6SM SCT250
NOTAMs
Click for the latest NOTAMs
NOTAMs are issued by the DoD/FAA and will open in a separate window not controlled by AirNav.

 

 
 

Would you like to see your business listed on this page?

 If your business provides an interesting product or service to pilots, flight crews, aircraft, or users of the Borges - Clarksburg Airport, you should consider listing it here.  To start the listing process, click on the button below
 
Add a business
 

Other Pages about Borges - Clarksburg Airport

Update a link
 
Copyright © AirNav, LLC. All rights reserved. Privacy Policy  Contact